Time;durP1;ratioP1;P1;durP2;ratioP2;P2;SDS_P1;SDS_P2;PMS_P1;PMS_P2;Temp;Humidity;BMP_temperature;BMP_pressure;BME280_temperature;BME280_humidity;BME280_pressure;Samples;Min_cycle;Max_cycle;Signal;HPM_P1;HPM_P2
2023/10/18 00:02:16;;;;;;;9.50;5.88;;;6.10;87.00;;;;;;4994160;28;20169;-80
2023/10/18 00:04:45;;;;;;;9.70;5.75;;;6.10;86.90;;;;;;4995358;28;20060;-80
2023/10/18 00:07:15;;;;;;;9.98;5.72;;;6.20;86.90;;;;;;4977971;28;20482;-80
2023/10/18 00:09:50;;;;;;;6.75;5.05;;;6.10;86.90;;;;;;4997981;28;20383;-80
2023/10/18 00:12:18;;;;;;;6.15;5.10;;;6.10;86.80;;;;;;4998471;28;20061;-80
2023/10/18 00:14:45;;;;;;;9.88;6.00;;;6.10;87.00;;;;;;4998358;28;20046;-83
2023/10/18 00:17:12;;;;;;;9.65;5.85;;;6.10;87.00;;;;;;4982523;28;20204;-80
2023/10/18 00:19:38;;;;;;;8.32;6.05;;;6.10;87.10;;;;;;4998526;28;20390;-80
2023/10/18 00:22:07;;;;;;;10.65;6.35;;;6.10;87.10;;;;;;4983249;28;20045;-80
2023/10/18 00:24:34;;;;;;;7.78;5.80;;;6.10;87.10;;;;;;4999313;28;20072;-80
2023/10/18 00:27:00;;;;;;;10.77;6.25;;;6.10;87.20;;;;;;4998610;28;20038;-80
2023/10/18 00:29:25;;;;;;;8.88;6.20;;;6.20;87.10;;;;;;4982060;28;20042;-80
2023/10/18 00:31:51;;;;;;;10.77;6.90;;;6.10;87.00;;;;;;4965649;28;20053;-80
2023/10/18 00:34:18;;;;;;;7.68;5.82;;;6.10;86.90;;;;;;4982168;28;20049;-80
2023/10/18 00:36:43;;;;;;;10.68;6.45;;;6.10;86.90;;;;;;4981929;28;20076;-80
2023/10/18 00:39:27;;;;;;;10.95;6.38;;;6.10;86.80;;;;;;4997933;28;20042;-80
2023/10/18 00:41:53;;;;;;;9.07;6.25;;;6.10;86.70;;;;;;4983375;28;20081;-79
2023/10/18 00:44:23;;;;;;;8.15;6.13;;;6.00;86.70;;;;;;4997818;28;20041;-79
2023/10/18 00:46:52;;;;;;;10.05;6.32;;;6.00;86.70;;;;;;4981794;28;20038;-79
2023/10/18 00:49:18;;;;;;;8.68;6.50;;;6.00;86.80;;;;;;4981701;28;20128;-80
2023/10/18 00:51:44;;;;;;;8.63;6.47;;;6.00;86.70;;;;;;4965489;28;20042;-80
2023/10/18 00:54:14;;;;;;;12.02;7.70;;;6.00;86.60;;;;;;4981502;28;20042;-80
2023/10/18 00:56:43;;;;;;;13.00;7.65;;;6.00;86.70;;;;;;4982286;28;20073;-80
2023/10/18 00:59:18;;;;;;;9.07;6.88;;;6.00;86.70;;;;;;4963947;28;20048;-80
2023/10/18 01:01:46;;;;;;;13.80;7.22;;;5.90;86.70;;;;;;4981234;28;20048;-80
2023/10/18 01:04:12;;;;;;;10.63;7.03;;;5.80;86.90;;;;;;4982071;28;20394;-79
2023/10/18 01:06:44;;;;;;;12.65;7.97;;;5.90;87.10;;;;;;4998496;28;20042;-80
2023/10/18 01:09:16;;;;;;;12.25;7.63;;;5.80;87.10;;;;;;4995628;28;20099;-80
2023/10/18 01:11:45;;;;;;;11.32;8.02;;;5.80;87.30;;;;;;4982243;28;20509;-80
2023/10/18 01:14:16;;;;;;;12.77;8.00;;;5.80;87.40;;;;;;4998260;28;20041;-80
2023/10/18 01:16:42;;;;;;;13.20;8.32;;;5.80;87.30;;;;;;4984664;28;20037;-80
2023/10/18 01:19:11;;;;;;;13.63;9.50;;;5.70;87.30;;;;;;4983228;28;20034;-80
2023/10/18 01:21:37;;;;;;;12.32;9.25;;;5.70;87.30;;;;;;4968430;28;20379;-80
2023/10/18 01:24:04;;;;;;;13.52;9.27;;;5.70;87.40;;;;;;4982601;28;20128;-80
2023/10/18 01:26:31;;;;;;;15.65;9.02;;;5.70;87.50;;;;;;4997009;28;20042;-80
2023/10/18 01:29:04;;;;;;;15.15;10.02;;;5.70;87.50;;;;;;4999399;28;20048;-79
2023/10/18 01:31:29;;;;;;;13.65;9.35;;;5.70;87.50;;;;;;4998498;28;20041;-80
2023/10/18 01:33:55;;;;;;;16.75;9.82;;;5.60;87.70;;;;;;4981083;28;20133;-80
2023/10/18 01:36:21;;;;;;;14.90;9.68;;;5.70;87.80;;;;;;4979238;28;20515;-80
2023/10/18 01:38:52;;;;;;;14.80;10.27;;;5.70;87.70;;;;;;4980675;28;20046;-80
2023/10/18 01:41:34;;;;;;;14.60;9.73;;;5.70;87.70;;;;;;4980542;28;20052;-80
2023/10/18 01:44:07;;;;;;;15.40;9.85;;;5.70;87.90;;;;;;4980430;28;20402;-80
2023/10/18 01:46:34;;;;;;;17.02;10.45;;;5.70;87.80;;;;;;4996762;28;20041;-79
2023/10/18 01:49:00;;;;;;;13.30;9.80;;;5.70;87.90;;;;;;4996506;28;20053;-79
2023/10/18 01:51:27;;;;;;;15.05;11.07;;;5.70;87.80;;;;;;4996662;28;20355;-80
2023/10/18 01:53:55;;;;;;;17.35;11.35;;;5.80;87.70;;;;;;4979571;28;20045;-80
2023/10/18 01:56:21;;;;;;;17.42;10.93;;;5.70;87.90;;;;;;4980659;28;20041;-80
2023/10/18 01:58:48;;;;;;;17.02;11.52;;;5.80;88.00;;;;;;4996384;28;20046;-81
2023/10/18 02:01:16;;;;;;;20.42;12.55;;;5.80;88.10;;;;;;4980126;28;20141;-80
2023/10/18 02:03:47;;;;;;;19.70;11.93;;;5.80;88.20;;;;;;4996371;28;20041;-80
2023/10/18 02:06:15;;;;;;;19.15;12.98;;;5.80;88.20;;;;;;4980346;28;20038;-81
2023/10/18 02:08:41;;;;;;;19.27;13.90;;;5.80;88.20;;;;;;4980489;28;20037;-80
2023/10/18 02:11:09;;;;;;;17.02;11.95;;;5.80;88.40;;;;;;4975047;28;20046;-80
2023/10/18 02:13:36;;;;;;;19.13;14.05;;;5.80;88.40;;;;;;4948738;28;20048;-80
2023/10/18 02:16:06;;;;;;;17.60;12.95;;;5.80;88.60;;;;;;4996141;28;20053;-80
2023/10/18 02:18:33;;;;;;;22.90;15.63;;;5.80;88.60;;;;;;4979904;28;20053;-80
2023/10/18 02:20:59;;;;;;;20.95;14.55;;;5.80;88.50;;;;;;4979890;28;20486;-80
2023/10/18 02:23:34;;;;;;;26.50;15.50;;;5.80;88.80;;;;;;4996144;28;20121;-81
2023/10/18 02:26:22;;;;;;;21.48;15.65;;;5.80;88.80;;;;;;4995935;28;20037;-81
2023/10/18 02:28:48;;;;;;;21.13;14.57;;;5.80;88.70;;;;;;4995907;28;20080;-81
2023/10/18 02:31:15;;;;;;;25.52;16.13;;;5.80;88.90;;;;;;4978902;28;20049;-80
2023/10/18 02:33:43;;;;;;;24.60;16.13;;;5.80;88.80;;;;;;4964004;28;20049;-81
2023/10/18 02:36:32;;;;;;;24.27;16.17;;;5.80;89.10;;;;;;4980281;28;20048;-80
2023/10/18 02:38:59;;;;;;;22.52;16.00;;;5.80;89.00;;;;;;4969400;28;20504;-80
2023/10/18 02:41:28;;;;;;;22.67;16.85;;;5.80;89.10;;;;;;4994682;28;20512;-80
2023/10/18 02:43:54;;;;;;;22.33;15.45;;;5.80;89.10;;;;;;4980281;28;20077;-80
2023/10/18 02:46:24;;;;;;;25.20;16.17;;;5.90;89.30;;;;;;4963525;28;20042;-80
2023/10/18 02:48:54;;;;;;;23.67;16.20;;;5.90;89.30;;;;;;4963686;28;20141;-80
2023/10/18 02:51:24;;;;;;;25.65;18.17;;;5.90;89.20;;;;;;4995728;28;20037;-80
2023/10/18 02:53:57;;;;;;;27.45;17.48;;;5.90;89.40;;;;;;4995989;28;20077;-81
2023/10/18 02:56:32;;;;;;;26.08;16.88;;;5.90;89.20;;;;;;4995656;28;20042;-80
2023/10/18 02:59:06;;;;;;;26.73;17.13;;;5.90;89.20;;;;;;4949407;28;20045;-80
2023/10/18 03:01:43;;;;;;;26.95;17.52;;;5.90;89.10;;;;;;4995459;28;20100;-80
2023/10/18 03:04:12;;;;;;;24.77;17.02;;;5.90;89.10;;;;;;4995778;28;20085;-80
2023/10/18 03:06:38;;;;;;;22.30;16.95;;;5.90;89.20;;;;;;4995798;28;20045;-80
2023/10/18 03:09:05;;;;;;;26.83;17.83;;;5.90;89.60;;;;;;4979294;28;20045;-80
2023/10/18 03:11:32;;;;;;;25.48;18.40;;;5.90;89.60;;;;;;4994431;28;20100;-80
2023/10/18 03:14:01;;;;;;;23.33;15.30;;;5.90;89.90;;;;;;4979766;28;20048;-80
2023/10/18 03:18:59;;;;;;;27.48;18.75;;;5.90;89.90;;;;;;4995531;28;20053;-80
2023/10/18 03:21:26;;;;;;;28.10;17.58;;;5.90;89.80;;;;;;4995285;28;20054;-80
2023/10/18 03:23:52;;;;;;;23.05;16.55;;;5.90;89.70;;;;;;4995785;28;20472;-81
2023/10/18 03:26:35;;;;;;;26.52;17.30;;;5.90;89.60;;;;;;4979007;28;20045;-80
2023/10/18 03:29:16;;;;;;;24.63;16.45;;;5.90;89.50;;;;;;4978144;28;20050;-81
2023/10/18 03:31:43;;;;;;;27.33;16.85;;;5.90;89.40;;;;;;4997038;28;20041;-81
2023/10/18 03:34:19;;;;;;;25.13;16.70;;;5.80;89.30;;;;;;4997648;28;20078;-80
2023/10/18 03:36:48;;;;;;;23.35;15.18;;;5.80;89.20;;;;;;4997805;28;20042;-80
2023/10/18 03:39:24;;;;;;;25.00;16.23;;;5.80;89.20;;;;;;4981494;28;20046;-80
2023/10/18 03:41:50;;;;;;;21.75;14.65;;;5.80;89.10;;;;;;4967334;28;20042;-80
2023/10/18 03:44:51;;;;;;;24.30;16.13;;;5.70;88.90;;;;;;4999493;28;20037;-80
2023/10/18 03:47:24;;;;;;;22.00;15.55;;;5.70;88.80;;;;;;4998444;28;20045;-81
2023/10/18 03:49:53;;;;;;;21.60;16.02;;;5.60;88.80;;;;;;4949177;28;20410;-80
2023/10/18 03:52:19;;;;;;;22.27;14.93;;;5.60;88.70;;;;;;4964292;28;20170;-81
2023/10/18 03:55:04;;;;;;;20.33;14.25;;;5.60;88.60;;;;;;4995460;28;20038;-80
2023/10/18 03:57:37;;;;;;;26.33;16.15;;;5.50;88.80;;;;;;4979505;28;20125;-81
2023/10/18 04:02:56;;;;;;;18.98;13.73;;;5.50;89.20;;;;;;4978385;28;20046;-81
2023/10/18 04:07:57;;;;;;;25.27;16.98;;;5.50;89.30;;;;;;4997461;28;20057;-81
2023/10/18 04:10:24;;;;;;;24.65;16.75;;;5.50;89.30;;;;;;4980856;28;20053;-80
2023/10/18 04:12:50;;;;;;;21.55;15.60;;;5.50;89.40;;;;;;4978595;28;20042;-81
2023/10/18 04:15:21;;;;;;;21.08;14.55;;;5.50;89.40;;;;;;4996625;28;20050;-82
2023/10/18 04:18:02;;;;;;;21.85;16.13;;;5.50;89.60;;;;;;4965280;28;20054;-81
2023/10/18 04:20:31;;;;;;;22.90;16.33;;;5.50;89.50;;;;;;4995796;28;20089;-81
2023/10/18 04:22:57;;;;;;;24.15;16.17;;;5.50;89.30;;;;;;4946940;28;20038;-80
2023/10/18 04:25:26;;;;;;;23.52;15.98;;;5.50;89.50;;;;;;4978737;28;20034;-81
2023/10/18 04:27:58;;;;;;;25.60;16.98;;;5.50;89.60;;;;;;4992246;28;20045;-81
2023/10/18 04:30:24;;;;;;;21.25;14.50;;;5.40;89.70;;;;;;4960718;28;20089;-80
2023/10/18 04:32:58;;;;;;;21.08;14.85;;;5.50;89.60;;;;;;4962875;28;20054;-81
2023/10/18 04:35:36;;;;;;;23.65;16.02;;;5.50;89.60;;;;;;4962913;28;20038;-80
2023/10/18 04:38:20;;;;;;;22.42;15.85;;;5.60;89.60;;;;;;4948468;28;20310;-81
2023/10/18 04:40:57;;;;;;;25.95;18.13;;;5.60;90.00;;;;;;4951231;28;20082;-81
2023/10/18 04:43:27;;;;;;;24.63;16.55;;;5.60;89.80;;;;;;4947374;28;20422;-82
2023/10/18 04:46:14;;;;;;;27.60;17.38;;;5.60;90.30;;;;;;4962092;28;20039;-81
2023/10/18 04:51:33;;;;;;;24.88;16.73;;;5.60;90.30;;;;;;4978344;28;20522;-81
2023/10/18 04:54:11;;;;;;;25.40;17.88;;;5.70;90.50;;;;;;4949909;28;20046;-82
2023/10/18 04:56:38;;;;;;;25.30;17.33;;;5.80;90.70;;;;;;4994366;28;20047;-80
2023/10/18 05:04:20;;;;;;;23.52;17.70;;;5.90;90.70;;;;;;4974976;28;20105;-80
2023/10/18 05:06:53;;;;;;;27.60;18.85;;;5.90;90.80;;;;;;4958701;28;20038;-81
2023/10/18 05:09:30;;;;;;;24.77;17.98;;;5.90;90.80;;;;;;4958642;28;20105;-81
2023/10/18 05:12:04;;;;;;;25.73;17.95;;;5.90;90.80;;;;;;4958008;28;20235;-80
2023/10/18 05:14:35;;;;;;;23.55;18.75;;;5.90;90.50;;;;;;4993343;28;20516;-81
2023/10/18 05:17:10;;;;;;;25.13;18.15;;;5.90;90.60;;;;;;4995445;28;20100;-81
2023/10/18 05:19:37;;;;;;;26.65;18.55;;;6.00;90.50;;;;;;4982533;28;20046;-81
2023/10/18 05:22:05;;;;;;;26.65;19.40;;;6.00;90.40;;;;;;4981596;28;20120;-81
2023/10/18 05:24:37;;;;;;;24.80;17.38;;;6.00;90.40;;;;;;4998035;28;20048;-81
2023/10/18 05:27:07;;;;;;;24.27;17.63;;;6.00;90.30;;;;;;4950317;28;20049;-81
2023/10/18 05:29:43;;;;;;;22.05;15.60;;;6.00;90.10;;;;;;4994872;28;20044;-81
2023/10/18 05:35:00;;;;;;;;;;;6.00;90.00;;;;;;4964598;28;20042;-82
2023/10/18 05:37:32;;;;;;;26.80;18.63;;;6.00;90.20;;;;;;4994111;28;19984;-83
2023/10/18 05:42:46;;;;;;;;;;;6.00;90.20;;;;;;4977719;28;20056;-82
2023/10/18 05:45:14;;;;;;;28.13;18.73;;;6.00;90.40;;;;;;4965840;28;20005;-82
2023/10/18 05:47:43;;;;;;;28.15;18.80;;;6.00;90.50;;;;;;4975294;28;20034;-82
2023/10/18 05:50:12;;;;;;;23.42;18.65;;;5.90;90.40;;;;;;5009504;28;20433;-82
2023/10/18 05:52:39;;;;;;;27.05;19.20;;;5.90;90.40;;;;;;4997606;28;20041;-81
2023/10/18 05:55:08;;;;;;;25.02;18.65;;;6.00;90.30;;;;;;5021837;28;20034;-81
2023/10/18 05:57:34;;;;;;;27.30;19.60;;;6.00;90.50;;;;;;5021621;28;20092;-80
2023/10/18 06:00:09;;;;;;;29.15;18.80;;;5.90;90.40;;;;;;4989596;28;20041;-81
2023/10/18 06:02:41;;;;;;;24.73;19.05;;;5.90;90.40;;;;;;5006269;28;20067;-81
2023/10/18 06:05:09;;;;;;;27.63;19.13;;;5.90;90.40;;;;;;4968748;28;20049;-81
2023/10/18 06:07:36;;;;;;;26.23;18.45;;;6.00;90.40;;;;;;4980413;28;20386;-81
2023/10/18 06:10:13;;;;;;;23.95;18.25;;;6.00;90.20;;;;;;4996597;28;20042;-80
2023/10/18 06:12:41;;;;;;;27.92;17.45;;;6.00;90.20;;;;;;4996424;28;20121;-83
2023/10/18 06:15:11;;;;;;;25.52;19.73;;;6.00;90.10;;;;;;4978407;28;20038;-81
2023/10/18 06:17:46;;;;;;;24.52;18.70;;;6.00;90.00;;;;;;4965130;28;20038;-80
2023/10/18 06:20:27;;;;;;;22.70;17.20;;;6.00;89.90;;;;;;4996622;28;20052;-82
2023/10/18 06:25:49;;;;;;;23.40;17.65;;;5.90;90.00;;;;;;4996221;28;20041;-81
2023/10/18 06:28:21;;;;;;;27.02;18.15;;;5.90;89.70;;;;;;4981073;28;20129;-81
2023/10/18 06:30:50;;;;;;;23.88;18.08;;;6.00;89.90;;;;;;4995223;28;20053;-80
2023/10/18 06:33:19;;;;;;;26.40;19.67;;;5.90;89.90;;;;;;4980248;28;20050;-81
2023/10/18 06:35:54;;;;;;;27.05;18.20;;;5.90;90.00;;;;;;4980528;28;20077;-80
2023/10/18 06:38:23;;;;;;;28.05;18.67;;;5.90;90.00;;;;;;4996130;28;20045;-80
2023/10/18 06:41:00;;;;;;;25.42;18.83;;;5.90;89.90;;;;;;4980243;28;20453;-81
2023/10/18 06:43:26;;;;;;;25.02;18.95;;;5.90;89.90;;;;;;4996230;28;20132;-81
2023/10/18 06:45:53;;;;;;;29.70;19.08;;;6.00;89.90;;;;;;4995016;28;20034;-81
2023/10/18 06:48:22;;;;;;;23.65;18.67;;;5.90;90.00;;;;;;4995452;28;20049;-80
2023/10/18 06:50:48;;;;;;;24.65;17.83;;;6.00;89.80;;;;;;4995812;28;20486;-81
2023/10/18 06:53:15;;;;;;;23.05;19.05;;;6.00;89.90;;;;;;4979865;28;20049;-80
2023/10/18 06:55:44;;;;;;;23.83;18.52;;;6.10;89.80;;;;;;4995710;28;20041;-80
2023/10/18 06:58:13;;;;;;;23.88;17.40;;;6.10;89.70;;;;;;4963835;28;20044;-81
2023/10/18 07:01:14;;;;;;;21.42;16.15;;;6.10;89.50;;;;;;4963520;28;20042;-81
2023/10/18 07:03:33;;;;;;;21.63;15.40;;;6.10;89.50;;;;;;4992385;28;20050;-80
2023/10/18 07:06:04;;;;;;;25.33;18.67;;;6.20;89.50;;;;;;4979410;28;20071;-81
2023/10/18 07:08:33;;;;;;;25.17;18.27;;;6.20;89.30;;;;;;4995736;28;20092;-82
2023/10/18 07:11:01;;;;;;;25.42;18.50;;;6.20;89.20;;;;;;4995769;28;20038;-80
2023/10/18 07:13:34;;;;;;;24.83;18.55;;;6.30;89.10;;;;;;4995776;28;20564;-80
2023/10/18 07:16:12;;;;;;;23.63;17.73;;;6.30;89.00;;;;;;4967631;28;20046;-80
2023/10/18 07:18:45;;;;;;;27.33;17.85;;;6.30;89.00;;;;;;4980352;28;20065;-80
2023/10/18 07:21:19;;;;;;;24.20;16.77;;;6.30;89.10;;;;;;4979874;28;20042;-81
2023/10/18 07:23:54;;;;;;;22.98;18.35;;;6.30;89.00;;;;;;4965200;28;20039;-80
2023/10/18 07:26:22;;;;;;;23.88;16.20;;;6.40;88.80;;;;;;4972908;28;20458;-81
2023/10/18 07:28:49;;;;;;;27.65;19.52;;;6.40;88.70;;;;;;5015691;28;20494;-82
2023/10/18 07:31:17;;;;;;;25.90;18.10;;;6.40;88.60;;;;;;4999552;28;20115;-81
2023/10/18 07:33:44;;;;;;;21.65;16.42;;;6.50;88.50;;;;;;4984011;28;20398;-81
2023/10/18 07:36:11;;;;;;;23.20;17.65;;;6.50;88.40;;;;;;4999640;28;20494;-81
2023/10/18 07:38:55;;;;;;;25.70;17.58;;;6.60;88.40;;;;;;4982983;28;20048;-81
2023/10/18 07:41:27;;;;;;;23.27;17.48;;;6.60;88.30;;;;;;4984674;28;20038;-82
2023/10/18 07:43:55;;;;;;;25.15;18.85;;;6.70;88.10;;;;;;4981779;28;20132;-81
2023/10/18 07:46:24;;;;;;;24.25;17.27;;;6.70;88.10;;;;;;4998974;28;20042;-81
2023/10/18 07:48:53;;;;;;;22.23;16.10;;;6.80;88.10;;;;;;4998899;28;20057;-83
2023/10/18 07:53:48;;;;;;;25.35;17.67;;;6.80;87.80;;;;;;4983439;28;20049;-82
2023/10/18 07:56:16;;;;;;;25.55;16.02;;;6.90;87.90;;;;;;4950984;28;20080;-82
2023/10/18 07:58:48;;;;;;;23.77;17.38;;;7.00;87.80;;;;;;4997253;28;20143;-83
2023/10/18 08:01:14;;;;;;;23.67;17.13;;;7.00;87.50;;;;;;4982369;28;20034;-83
2023/10/18 08:03:42;;;;;;;23.88;17.15;;;7.10;87.40;;;;;;4950383;28;20042;-82
2023/10/18 08:06:26;;;;;;;21.90;15.55;;;7.10;87.10;;;;;;4982852;28;20497;-82
2023/10/18 08:08:51;;;;;;;22.70;16.50;;;7.10;86.80;;;;;;4985411;28;20157;-82
2023/10/18 08:11:18;;;;;;;26.45;17.92;;;7.10;86.70;;;;;;4982340;28;20037;-83
2023/10/18 08:13:46;;;;;;;22.33;15.73;;;7.10;86.80;;;;;;4968429;28;20038;-80
2023/10/18 08:16:26;;;;;;;21.60;15.70;;;7.20;86.80;;;;;;4989060;28;20037;-81
2023/10/18 08:18:52;;;;;;;19.95;15.73;;;7.20;86.50;;;;;;4985214;28;20452;-82
2023/10/18 08:21:38;;;;;;;21.23;15.15;;;7.30;86.40;;;;;;4966326;28;20045;-82
2023/10/18 08:24:14;;;;;;;20.73;15.23;;;7.30;86.50;;;;;;4982536;28;20045;-82
2023/10/18 08:26:48;;;;;;;21.60;16.00;;;7.40;86.60;;;;;;4983523;28;20410;-82
2023/10/18 08:29:15;;;;;;;24.88;16.35;;;7.50;86.50;;;;;;4982232;28;20038;-82
2023/10/18 08:31:44;;;;;;;22.70;15.85;;;7.50;86.30;;;;;;4998276;28;20592;-81
2023/10/18 08:34:15;;;;;;;21.73;15.70;;;7.50;85.80;;;;;;4965771;28;20636;-81
2023/10/18 08:36:44;;;;;;;18.85;15.63;;;7.60;86.10;;;;;;4982745;28;20128;-81
2023/10/18 08:39:10;;;;;;;19.10;14.45;;;7.60;85.60;;;;;;4998158;28;20042;-81
2023/10/18 08:42:05;;;;;;;20.73;14.85;;;7.70;85.50;;;;;;4997897;28;20050;-81
2023/10/18 08:44:32;;;;;;;18.52;14.32;;;7.70;85.60;;;;;;4990758;28;20085;-82
2023/10/18 08:49:44;;;;;;;18.17;14.13;;;7.90;84.90;;;;;;4996420;28;20057;-81
2023/10/18 08:52:11;;;;;;;19.10;14.98;;;7.90;84.70;;;;;;4998039;28;20049;-83
2023/10/18 08:54:47;;;;;;;21.75;16.50;;;7.90;84.50;;;;;;4998168;28;20053;-82
2023/10/18 08:57:15;;;;;;;20.05;14.63;;;8.00;83.70;;;;;;4981836;28;20056;-83
2023/10/18 08:59:46;;;;;;;21.30;15.13;;;8.00;84.10;;;;;;4981657;28;20037;-82
2023/10/18 09:02:18;;;;;;;19.38;15.43;;;8.00;84.40;;;;;;4997955;28;20042;-82
2023/10/18 09:04:52;;;;;;;21.05;15.68;;;8.00;84.10;;;;;;5014215;28;20041;-82
2023/10/18 09:07:21;;;;;;;19.23;15.25;;;8.10;84.20;;;;;;4982301;28;20033;-81
2023/10/18 09:09:53;;;;;;;17.30;13.40;;;8.20;84.20;;;;;;4997348;28;20405;-81
2023/10/18 09:15:29;;;;;;;19.77;12.93;;;8.30;83.60;;;;;;4997655;28;20049;-81
2023/10/18 09:18:05;;;;;;;17.42;13.10;;;8.30;83.30;;;;;;4995743;28;20042;-83
2023/10/18 09:20:31;;;;;;;19.55;14.13;;;8.40;83.10;;;;;;4996847;28;20179;-82
2023/10/18 09:23:04;;;;;;;18.92;14.60;;;8.40;81.70;;;;;;4997422;28;20049;-81
2023/10/18 09:25:49;;;;;;;20.95;14.00;;;8.50;82.50;;;;;;4997065;28;20049;-82
2023/10/18 09:28:25;;;;;;;17.45;13.63;;;8.60;82.70;;;;;;4997345;28;20060;-82
2023/10/18 09:31:00;;;;;;;15.32;12.75;;;8.70;82.50;;;;;;4996954;28;20073;-82
2023/10/18 09:33:33;;;;;;;16.10;12.60;;;8.70;81.90;;;;;;4981242;28;20617;-83
2023/10/18 09:36:02;;;;;;;20.15;13.55;;;8.80;81.30;;;;;;4981247;28;20089;-82
2023/10/18 09:38:39;;;;;;;19.83;13.68;;;9.00;81.80;;;;;;4985533;28;20038;-81
2023/10/18 09:41:05;;;;;;;19.73;13.80;;;9.00;81.50;;;;;;4985269;28;20482;-81
2023/10/18 09:43:33;;;;;;;17.25;12.43;;;9.10;81.10;;;;;;4969150;28;20042;-83
2023/10/18 09:45:59;;;;;;;16.20;11.32;;;9.20;81.00;;;;;;4981693;28;20049;-82
2023/10/18 09:48:32;;;;;;;15.15;11.40;;;9.20;79.80;;;;;;4999768;28;20044;-82
2023/10/18 09:51:09;;;;;;;13.63;10.68;;;9.30;80.00;;;;;;4999451;28;20049;-81
2023/10/18 09:53:49;;;;;;;15.95;10.30;;;9.40;79.90;;;;;;4996932;28;20195;-81
2023/10/18 09:56:19;;;;;;;13.68;11.27;;;9.40;79.50;;;;;;4964490;28;20493;-81
2023/10/18 09:58:49;;;;;;;15.50;11.05;;;9.50;79.10;;;;;;4996739;28;20486;-82
2023/10/18 10:01:25;;;;;;;16.00;11.18;;;9.60;78.20;;;;;;4964736;28;20122;-82
2023/10/18 10:03:52;;;;;;;13.00;9.68;;;9.60;78.60;;;;;;4996517;28;20154;-82
2023/10/18 10:06:26;;;;;;;14.27;10.82;;;9.70;78.50;;;;;;4996685;28;20046;-81
2023/10/18 10:09:12;;;;;;;16.25;11.50;;;9.70;77.70;;;;;;4996655;28;20135;-82
2023/10/18 10:11:43;;;;;;;14.48;10.95;;;9.80;77.70;;;;;;4996578;28;20034;-81
2023/10/18 10:14:18;;;;;;;14.60;11.38;;;9.90;78.30;;;;;;4980439;28;20045;-82
2023/10/18 10:16:54;;;;;;;13.85;9.65;;;10.00;76.70;;;;;;4996881;28;20049;-81
2023/10/18 10:19:25;;;;;;;14.75;11.63;;;10.00;77.80;;;;;;4996430;28;20574;-81
2023/10/18 10:21:53;;;;;;;14.93;10.63;;;10.10;77.40;;;;;;4979925;28;20077;-82
2023/10/18 10:24:33;;;;;;;13.15;10.63;;;10.10;77.10;;;;;;4996266;28;20049;-81
2023/10/18 10:30:49;;;;;;;13.88;10.02;;;10.10;76.30;;;;;;4996037;28;20052;-82
2023/10/18 10:32:58;;;;;;;17.25;11.90;;;10.10;76.50;;;;;;4982078;28;20494;-82
2023/10/18 10:35:25;;;;;;;15.15;10.82;;;10.20;76.70;;;;;;4996373;28;20402;-81
2023/10/18 10:37:55;;;;;;;15.73;10.68;;;10.30;76.70;;;;;;5012463;28;20052;-82
2023/10/18 10:43:02;;;;;;;15.70;11.02;;;10.40;75.70;;;;;;4996090;28;20050;-82
2023/10/18 10:48:18;;;;;;;12.60;9.73;;;10.50;76.70;;;;;;4996171;28;20045;-81
2023/10/18 10:51:13;;;;;;;13.98;9.68;;;10.50;76.20;;;;;;4978834;28;20781;-81
2023/10/18 10:54:00;;;;;;;13.77;10.10;;;10.60;75.80;;;;;;4996102;28;20046;-81
2023/10/18 10:56:33;;;;;;;12.50;10.00;;;10.60;75.10;;;;;;4995964;28;20049;-82
2023/10/18 11:01:43;;;;;;;11.27;9.93;;;10.60;75.20;;;;;;4995770;28;20132;-81
2023/10/18 11:04:46;;;;;;;11.95;8.98;;;10.70;75.50;;;;;;4979652;28;20478;-81
2023/10/18 11:07:21;;;;;;;13.23;9.60;;;10.70;75.20;;;;;;4995818;28;20057;-81
2023/10/18 11:09:48;;;;;;;16.20;9.70;;;10.80;75.30;;;;;;4964941;28;20038;-81
2023/10/18 11:12:14;;;;;;;12.82;9.18;;;10.80;74.60;;;;;;4964822;28;20390;-82
2023/10/18 11:14:44;;;;;;;12.05;8.57;;;10.80;74.60;;;;;;4997738;28;20034;-81
2023/10/18 11:19:54;;;;;;;13.05;10.00;;;10.90;75.40;;;;;;4981603;28;20042;-81
2023/10/18 11:22:23;;;;;;;13.60;9.40;;;11.00;74.90;;;;;;5013447;28;20129;-81
2023/10/18 11:24:55;;;;;;;12.07;9.20;;;10.90;74.00;;;;;;4997277;28;20045;-82
2023/10/18 11:27:23;;;;;;;11.35;9.07;;;11.00;74.30;;;;;;4981739;28;20041;-81
2023/10/18 11:30:15;;;;;;;10.32;9.07;;;11.00;73.70;;;;;;4983543;28;20549;-81
2023/10/18 11:32:43;;;;;;;12.20;9.00;;;11.00;73.40;;;;;;4984698;28;20041;-82
2023/10/18 11:35:09;;;;;;;14.23;8.98;;;11.10;73.80;;;;;;4964372;28;20038;-80
2023/10/18 11:37:40;;;;;;;12.52;8.98;;;11.20;74.10;;;;;;4979846;28;20064;-82
2023/10/18 11:40:21;;;;;;;10.93;8.55;;;11.20;74.20;;;;;;4979582;28;20120;-81
2023/10/18 11:43:09;;;;;;;10.98;8.95;;;11.20;73.60;;;;;;4964254;28;20084;-81
2023/10/18 11:45:39;;;;;;;12.32;8.98;;;11.30;74.30;;;;;;4995449;28;20034;-84
2023/10/18 11:48:14;;;;;;;12.55;8.80;;;11.40;74.20;;;;;;4963869;28;20038;-82
2023/10/18 11:50:50;;;;;;;12.70;9.30;;;11.40;73.50;;;;;;4979623;28;20053;-82
2023/10/18 11:53:22;;;;;;;13.35;9.77;;;11.40;72.30;;;;;;4995332;28;20629;-83
2023/10/18 11:55:58;;;;;;;11.38;9.43;;;11.50;72.70;;;;;;4979253;28;20042;-82
2023/10/18 11:58:26;;;;;;;12.18;8.88;;;11.60;73.10;;;;;;4979017;28;20048;-81
2023/10/18 12:01:00;;;;;;;14.73;9.57;;;11.70;72.90;;;;;;4978934;28;20045;-81
2023/10/18 12:03:27;;;;;;;11.25;9.05;;;11.80;72.20;;;;;;4981290;28;20490;-82
2023/10/18 12:05:57;;;;;;;13.75;9.38;;;11.80;71.30;;;;;;4998624;28;20038;-82
2023/10/18 12:08:24;;;;;;;15.30;10.25;;;11.70;71.00;;;;;;4982838;28;20120;-82
2023/10/18 12:10:52;;;;;;;12.10;9.57;;;11.80;72.10;;;;;;5014810;28;20038;-83
2023/10/18 12:13:20;;;;;;;13.35;8.50;;;11.80;72.10;;;;;;4998556;28;20129;-83
2023/10/18 12:15:47;;;;;;;12.00;9.52;;;11.60;71.10;;;;;;4982585;28;20042;-82
2023/10/18 12:18:16;;;;;;;13.18;8.93;;;11.60;72.10;;;;;;4982753;28;20440;-83
2023/10/18 12:20:45;;;;;;;13.30;9.50;;;11.70;73.10;;;;;;4998930;28;20041;-82
2023/10/18 12:23:13;;;;;;;10.85;8.88;;;11.80;73.00;;;;;;4999925;28;20045;-83
2023/10/18 12:25:42;;;;;;;13.15;9.32;;;11.70;71.40;;;;;;4967201;28;20038;-82
2023/10/18 12:28:12;;;;;;;12.43;8.90;;;11.70;71.00;;;;;;4982313;28;20049;-82
2023/10/18 12:30:52;;;;;;;12.93;8.70;;;11.80;72.60;;;;;;4985319;28;20494;-83
2023/10/18 12:33:23;;;;;;;11.32;9.18;;;11.80;71.70;;;;;;4986310;28;20057;-82
2023/10/18 12:35:49;;;;;;;12.98;8.52;;;11.70;71.20;;;;;;4985633;28;20041;-82
2023/10/18 12:38:20;;;;;;;11.55;8.23;;;11.80;72.10;;;;;;4985311;28;20042;-83
2023/10/18 12:40:54;;;;;;;10.73;8.40;;;11.80;71.60;;;;;;5001011;28;20042;-82
2023/10/18 12:43:21;;;;;;;;;;;11.90;72.10;;;;;;4969501;28;20049;-83
2023/10/18 12:45:53;;;;;;;9.77;8.43;;;11.90;72.10;;;;;;4983995;28;20012;-83
2023/10/18 12:48:22;;;;;;;12.38;8.90;;;12.00;71.80;;;;;;4968932;28;20045;-83
2023/10/18 12:50:52;;;;;;;10.10;7.95;;;12.10;71.90;;;;;;4982532;28;20058;-84
2023/10/18 12:56:16;;;;;;;11.27;9.63;;;12.40;71.20;;;;;;4982192;28;20049;-82
2023/10/18 12:58:54;;;;;;;11.60;9.30;;;12.50;69.60;;;;;;4981743;28;20038;-82
2023/10/18 13:01:31;;;;;;;9.93;8.50;;;12.60;68.90;;;;;;4983293;28;20041;-82
2023/10/18 13:03:57;;;;;;;13.27;8.30;;;12.90;70.70;;;;;;4982911;28;20139;-82
2023/10/18 13:06:30;;;;;;;10.77;8.48;;;13.00;69.90;;;;;;4997827;28;20042;-81
2023/10/18 13:14:14;;;;;;;10.77;8.90;;;12.90;68.00;;;;;;4996577;28;20049;-82
2023/10/18 13:16:42;;;;;;;12.25;8.60;;;12.80;69.10;;;;;;4981389;28;20038;-82
2023/10/18 13:19:15;;;;;;;11.02;7.43;;;12.80;69.00;;;;;;4981230;28;20084;-83
2023/10/18 13:21:43;;;;;;;8.50;7.53;;;12.70;69.30;;;;;;4997157;28;20065;-83
2023/10/18 13:24:31;;;;;;;8.70;7.72;;;12.60;69.50;;;;;;4981432;28;20133;-82
2023/10/18 13:27:00;;;;;;;9.32;7.68;;;12.60;69.20;;;;;;4996654;28;20046;-81
2023/10/18 13:31:58;;;;;;;9.57;7.97;;;12.50;69.70;;;;;;4981203;28;20053;-83
2023/10/18 13:34:32;;;;;;;9.95;7.80;;;12.50;70.00;;;;;;4981672;28;20037;-81
2023/10/18 13:36:59;;;;;;;11.05;8.55;;;12.40;69.20;;;;;;4982184;28;20125;-82
2023/10/18 13:39:27;;;;;;;9.45;7.65;;;12.40;69.70;;;;;;4981007;28;20508;-84
2023/10/18 13:41:53;;;;;;;12.60;8.18;;;12.20;68.90;;;;;;4981495;28;20096;-83
2023/10/18 13:44:22;;;;;;;10.18;7.57;;;12.10;69.20;;;;;;4999979;28;20525;-80
2023/10/18 13:46:55;;;;;;;11.45;7.97;;;12.20;69.60;;;;;;4999338;28;20042;-81
2023/10/18 13:49:23;;;;;;;8.65;7.13;;;12.10;68.80;;;;;;4968808;28;20486;-81
2023/10/18 13:51:50;;;;;;;10.45;7.63;;;12.00;69.40;;;;;;4980420;28;20058;-83
2023/10/18 13:54:16;;;;;;;12.63;9.32;;;12.00;70.10;;;;;;4964712;28;20518;-80
2023/10/18 13:56:43;;;;;;;9.70;6.85;;;12.00;70.40;;;;;;4996943;28;20038;-81
2023/10/18 13:59:13;;;;;;;10.32;6.85;;;12.00;70.70;;;;;;4996898;28;20046;-83